Time;durP1;ratioP1;P1;durP2;ratioP2;P2;SDS_P1;SDS_P2;PMS_P1;PMS_P2;Temp;Humidity;BMP_temperature;BMP_pressure;BME280_temperature;BME280_humidity;BME280_pressure;Samples;Min_cycle;Max_cycle;Signal;HPM_P1;HPM_P2
2022/01/24 00:02:24;;;;;;;0.00;0.00;;;;;26.20;100192.00;;;;5106975;28;20641;-75
2022/01/24 00:04:54;;;;;;;0.00;0.00;;;;;26.60;100207.00;;;;5106658;28;20067;-79
2022/01/24 00:07:25;;;;;;;0.00;0.00;;;;;26.50;100206.00;;;;5110917;28;20055;-77
2022/01/24 00:09:57;;;;;;;0.00;0.00;;;;;26.30;100206.00;;;;5092029;28;20051;-75
2022/01/24 00:28:30;;;;;;;0.00;0.00;;;;;26.90;100212.00;;;;5108610;28;20123;-78
2022/01/24 00:31:00;;;;;;;0.00;0.00;;;;;26.80;100203.00;;;;5109939;28;20088;-77
2022/01/24 00:33:30;;;;;;;0.00;0.00;;;;;26.70;100211.00;;;;5110219;28;20043;-78
2022/01/24 00:35:59;;;;;;;0.00;0.00;;;;;26.60;100212.00;;;;5110451;28;20043;-78
2022/01/24 00:38:29;;;;;;;0.00;0.00;;;;;26.50;100222.00;;;;5110275;28;20075;-79
2022/01/24 00:40:59;;;;;;;0.00;0.00;;;;;26.50;100225.00;;;;5110621;28;20081;-77
2022/01/24 00:43:42;;;;;;;0.00;0.00;;;;;26.50;100237.00;;;;5109872;28;20113;-79
2022/01/24 00:46:29;;;;;;;0.00;0.00;;;;;26.40;100229.00;;;;5110498;28;20117;-80
2022/01/24 00:49:20;;;;;;;;;;;;;;;;;;;;;
2022/01/24 00:57:04;;;;;;;0.05;0.05;;;;;26.10;100270.00;;;;5098845;28;20068;-76
2022/01/24 00:59:34;;;;;;;0.00;0.00;;;;;26.10;100271.00;;;;5102901;28;20043;-76
2022/01/24 01:02:04;;;;;;;0.00;0.00;;;;;26.20;100279.00;;;;5109617;28;20096;-76
2022/01/24 01:04:49;;;;;;;0.00;0.00;;;;;26.30;100277.00;;;;5110348;28;20048;-76
2022/01/24 01:18:26;;;;;;;0.00;0.00;;;;;26.20;100288.00;;;;5110005;28;20050;-76
2022/01/24 01:23:34;;;;;;;0.00;0.00;;;;;26.10;100310.00;;;;5109475;28;20529;-76
2022/01/24 01:26:09;;;;;;;0.00;0.00;;;;;26.10;100308.00;;;;5109201;28;20040;-77
2022/01/24 01:28:42;;;;;;;0.00;0.00;;;;;26.00;100302.00;;;;5109214;28;20093;-76
2022/01/24 01:31:23;;;;;;;0.00;0.00;;;;;26.00;100311.00;;;;5108631;28;20052;-76
2022/01/24 01:34:03;;;;;;;0.00;0.00;;;;;25.90;100298.00;;;;5109653;28;20040;-77
2022/01/24 01:56:00;;;;;;;0.00;0.00;;;;;25.40;100310.00;;;;5108843;28;20048;-78
2022/01/24 01:58:29;;;;;;;0.00;0.00;;;;;25.50;100314.00;;;;5108855;28;20054;-77
2022/01/24 02:01:01;;;;;;;0.00;0.00;;;;;25.50;100304.00;;;;5109214;28;20074;-77
2022/01/24 02:03:31;;;;;;;0.00;0.00;;;;;25.40;100304.00;;;;5108846;28;20131;-77
2022/01/24 02:06:01;;;;;;;0.00;0.00;;;;;25.30;100304.00;;;;5108533;28;20048;-77
2022/01/24 02:08:32;;;;;;;0.00;0.00;;;;;25.30;100298.00;;;;5106089;28;20051;-76
2022/01/24 02:11:01;;;;;;;0.00;0.00;;;;;25.20;100302.00;;;;5104608;28;20116;-77
2022/01/24 02:13:31;;;;;;;0.00;0.00;;;;;25.30;100316.00;;;;5104918;28;20065;-77
2022/01/24 02:18:41;;;;;;;0.00;0.00;;;;;25.30;100300.00;;;;5108479;28;20052;-77
2022/01/24 02:24:17;;;;;;;0.00;0.00;;;;;25.10;100272.00;;;;5078385;28;20055;-77
2022/01/24 02:26:49;;;;;;;0.00;0.00;;;;;25.00;100269.00;;;;5108449;28;20040;-76
2022/01/24 02:31:55;;;;;;;0.00;0.00;;;;;24.80;100255.00;;;;5108091;28;20580;-77
2022/01/24 02:34:37;;;;;;;0.00;0.00;;;;;24.80;100263.00;;;;5108628;28;20492;-76
2022/01/24 02:37:11;;;;;;;0.00;0.00;;;;;24.70;100248.00;;;;5107841;28;20070;-76
2022/01/24 02:39:48;;;;;;;0.00;0.00;;;;;24.60;100247.00;;;;5106645;28;20039;-77
2022/01/24 02:48:28;;;;;;;0.00;0.00;;;;;24.40;100219.00;;;;5089194;28;20052;-77
2022/01/24 02:53:51;;;;;;;0.00;0.00;;;;;24.30;100209.00;;;;5107549;28;20031;-78
2022/01/24 02:56:21;;;;;;;0.00;0.00;;;;;24.30;100211.00;;;;5107697;28;20036;-77
2022/01/24 02:58:50;;;;;;;0.00;0.00;;;;;24.20;100196.00;;;;5107159;28;20038;-77
2022/01/24 03:01:21;;;;;;;0.00;0.00;;;;;24.20;100192.00;;;;5107414;28;20039;-78
2022/01/24 03:03:51;;;;;;;0.00;0.00;;;;;24.20;100189.00;;;;5108081;28;20048;-78
2022/01/24 03:06:20;;;;;;;0.00;0.00;;;;;24.10;100195.00;;;;5107435;28;20043;-77
2022/01/24 03:08:50;;;;;;;0.00;0.00;;;;;24.10;100200.00;;;;5107250;28;20052;-76
2022/01/24 03:11:20;;;;;;;0.00;0.00;;;;;24.10;100199.00;;;;5107370;28;20035;-76
2022/01/24 03:13:50;;;;;;;0.00;0.00;;;;;24.00;100194.00;;;;5107505;28;20039;-76
2022/01/24 03:16:20;;;;;;;0.00;0.00;;;;;24.00;100188.00;;;;5106781;28;20126;-76
2022/01/24 03:18:49;;;;;;;0.00;0.00;;;;;24.00;100180.00;;;;5107443;28;20044;-76
2022/01/24 03:21:19;;;;;;;0.00;0.00;;;;;24.00;100177.00;;;;5107964;28;20044;-76
2022/01/24 03:23:49;;;;;;;0.00;0.00;;;;;23.90;100163.00;;;;5106871;28;20410;-76
2022/01/24 03:26:18;;;;;;;0.00;0.00;;;;;23.90;100154.00;;;;5107119;28;20055;-77
2022/01/24 03:28:47;;;;;;;0.00;0.00;;;;;23.80;100157.00;;;;5107463;28;20066;-76
2022/01/24 03:31:17;;;;;;;0.00;0.00;;;;;23.80;100157.00;;;;5106980;28;20150;-76
2022/01/24 03:33:47;;;;;;;0.00;0.00;;;;;23.80;100147.00;;;;5107286;28;20040;-76
2022/01/24 03:36:16;;;;;;;0.00;0.00;;;;;23.80;100154.00;;;;5106629;28;20048;-76
2022/01/24 03:38:46;;;;;;;0.00;0.00;;;;;23.80;100148.00;;;;5106941;28;20127;-76
2022/01/24 03:41:16;;;;;;;0.00;0.00;;;;;23.70;100141.00;;;;5106950;28;20048;-76
2022/01/24 03:43:45;;;;;;;0.00;0.00;;;;;23.70;100147.00;;;;5106454;28;20047;-76
2022/01/24 03:48:55;;;;;;;0.00;0.00;;;;;23.70;100166.00;;;;5106377;28;20506;-76
2022/01/24 03:51:25;;;;;;;0.00;0.00;;;;;23.70;100172.00;;;;5107308;28;20043;-76
2022/01/24 03:53:55;;;;;;;0.00;0.00;;;;;23.70;100172.00;;;;5107361;28;20043;-76
2022/01/24 03:56:24;;;;;;;0.00;0.00;;;;;23.70;100170.00;;;;5107319;28;20410;-76
2022/01/24 03:58:53;;;;;;;0.00;0.00;;;;;23.70;100176.00;;;;5106999;28;21216;-75
2022/01/24 04:01:23;;;;;;;0.25;0.25;;;;;23.70;100147.00;;;;5106324;28;20043;-76
2022/01/24 04:03:52;;;;;;;0.00;0.00;;;;;23.80;100149.00;;;;5106710;28;20052;-76
2022/01/24 04:06:22;;;;;;;0.00;0.00;;;;;23.80;100145.00;;;;5107010;28;20055;-76
2022/01/24 04:08:53;;;;;;;0.00;0.00;;;;;23.70;100156.00;;;;5106841;28;20048;-76
2022/01/24 04:11:32;;;;;;;0.00;0.00;;;;;23.70;100135.00;;;;5106948;28;20036;-77
2022/01/24 04:14:21;;;;;;;0.00;0.00;;;;;23.70;100137.00;;;;5106420;28;20092;-76
2022/01/24 04:17:08;;;;;;;0.00;0.00;;;;;23.70;100119.00;;;;5106324;28;20044;-76
2022/01/24 04:22:16;;;;;;;0.00;0.00;;;;;23.70;100130.00;;;;5106453;28;20067;-76
2022/01/24 04:24:47;;;;;;;0.00;0.00;;;;;23.70;100127.00;;;;5106829;28;20050;-76
2022/01/24 04:27:18;;;;;;;0.00;0.00;;;;;23.70;100125.00;;;;5106674;28;21089;-77
2022/01/24 04:29:48;;;;;;;0.00;0.00;;;;;23.70;100107.00;;;;5106854;28;20054;-77
2022/01/24 04:32:18;;;;;;;0.00;0.00;;;;;23.60;100095.00;;;;5106317;28;20044;-77
2022/01/24 04:34:48;;;;;;;0.00;0.00;;;;;23.60;100086.00;;;;5106929;28;20039;-78
2022/01/24 04:37:17;;;;;;;0.00;0.00;;;;;23.60;100093.00;;;;5107361;28;20105;-77
2022/01/24 04:39:48;;;;;;;0.00;0.00;;;;;23.60;100081.00;;;;5106478;28;20516;-76
2022/01/24 04:42:26;;;;;;;0.00;0.00;;;;;23.60;100082.00;;;;5088201;28;20058;-77
2022/01/24 04:45:22;;;;;;;0.00;0.00;;;;;23.60;100094.00;;;;5106766;28;20059;-77
2022/01/24 04:53:43;;;;;;;0.00;0.00;;;;;23.60;100090.00;;;;5110012;28;20057;-77
2022/01/24 04:56:05;;;;;;;0.00;0.00;;;;;23.60;100091.00;;;;5109851;28;20039;-76
2022/01/24 04:58:34;;;;;;;0.00;0.00;;;;;23.60;100086.00;;;;5110118;28;20047;-76
2022/01/24 05:01:04;;;;;;;0.00;0.00;;;;;23.60;100080.00;;;;5109723;28;20513;-77
2022/01/24 05:03:33;;;;;;;0.00;0.00;;;;;23.60;100079.00;;;;5109808;28;20035;-76
2022/01/24 05:06:03;;;;;;;0.00;0.00;;;;;23.60;100088.00;;;;5109853;28;20062;-76
2022/01/24 05:08:32;;;;;;;0.00;0.00;;;;;23.70;100069.00;;;;5109715;28;20059;-77
2022/01/24 05:11:08;;;;;;;0.00;0.00;;;;;23.70;100056.00;;;;5091827;28;20043;-76
2022/01/24 05:24:37;;;;;;;0.00;0.00;;;;;23.60;100077.00;;;;5109294;28;20154;-77
2022/01/24 05:27:07;;;;;;;0.00;0.00;;;;;23.60;100056.00;;;;5109511;28;20075;-77
2022/01/24 05:29:37;;;;;;;0.00;0.00;;;;;23.60;100059.00;;;;5091525;28;20040;-77
2022/01/24 05:32:08;;;;;;;0.00;0.00;;;;;23.60;100069.00;;;;5109695;28;20052;-76
2022/01/24 05:34:38;;;;;;;0.00;0.00;;;;;23.50;100055.00;;;;5109535;28;20040;-77
2022/01/24 05:37:07;;;;;;;0.00;0.00;;;;;23.50;100054.00;;;;5109315;28;20039;-77
2022/01/24 05:39:37;;;;;;;0.00;0.00;;;;;23.50;100059.00;;;;5108996;28;20406;-77
2022/01/24 05:42:06;;;;;;;0.00;0.00;;;;;23.50;100048.00;;;;5109421;28;20051;-76
2022/01/24 05:44:36;;;;;;;0.00;0.00;;;;;23.50;100061.00;;;;5109217;28;20062;-77
2022/01/24 05:47:05;;;;;;;0.00;0.00;;;;;23.40;100070.00;;;;5108882;28;20051;-77
2022/01/24 05:49:34;;;;;;;0.00;0.00;;;;;23.40;100057.00;;;;5108557;28;20047;-77
2022/01/24 05:52:09;;;;;;;0.00;0.00;;;;;23.40;100067.00;;;;5109315;28;20092;-77
2022/01/24 05:54:42;;;;;;;0.00;0.00;;;;;23.40;100079.00;;;;5109056;28;20043;-77
2022/01/24 05:57:12;;;;;;;0.00;0.00;;;;;23.40;100051.00;;;;5108506;28;20042;-77
2022/01/24 05:59:42;;;;;;;0.00;0.00;;;;;23.40;100067.00;;;;5108684;28;20040;-78
2022/01/24 06:02:11;;;;;;;0.00;0.00;;;;;23.40;100061.00;;;;5108591;28;20506;-76
2022/01/24 06:04:40;;;;;;;0.00;0.00;;;;;23.40;100046.00;;;;5109752;28;20464;-76
2022/01/24 06:07:10;;;;;;;0.00;0.00;;;;;23.30;100051.00;;;;5108756;28;20047;-76
2022/01/24 06:09:39;;;;;;;0.00;0.00;;;;;23.40;100045.00;;;;5108163;28;20051;-76
2022/01/24 06:12:10;;;;;;;0.00;0.00;;;;;23.40;100046.00;;;;5108602;28;20134;-76
2022/01/24 06:14:39;;;;;;;0.00;0.00;;;;;23.40;100055.00;;;;5089634;28;20052;-77
2022/01/24 06:17:10;;;;;;;0.00;0.00;;;;;23.40;100050.00;;;;5108295;28;20035;-76
2022/01/24 06:19:40;;;;;;;0.00;0.00;;;;;23.40;100047.00;;;;5109203;28;20089;-76
2022/01/24 06:22:10;;;;;;;0.00;0.00;;;;;23.40;100066.00;;;;5108413;28;20096;-76
2022/01/24 06:24:40;;;;;;;0.10;0.10;;;;;23.40;100063.00;;;;5108747;28;20490;-76
2022/01/24 06:27:27;;;;;;;0.00;0.00;;;;;23.40;100061.00;;;;5108298;28;20536;-76
2022/01/24 06:29:56;;;;;;;0.00;0.00;;;;;23.30;100042.00;;;;5109014;28;20494;-78
2022/01/24 06:32:26;;;;;;;0.00;0.00;;;;;23.30;100068.00;;;;5108444;28;20498;-78
2022/01/24 06:34:55;;;;;;;0.00;0.00;;;;;23.30;100057.00;;;;5108117;28;20043;-77
2022/01/24 06:37:24;;;;;;;0.00;0.00;;;;;23.30;100061.00;;;;5108044;28;20069;-77
2022/01/24 06:39:55;;;;;;;0.00;0.00;;;;;23.30;100076.00;;;;5108389;28;20052;-77
2022/01/24 06:42:24;;;;;;;0.00;0.00;;;;;23.30;100070.00;;;;5108094;28;20047;-77
2022/01/24 06:44:56;;;;;;;0.00;0.00;;;;;23.20;100068.00;;;;5107970;28;20055;-77
2022/01/24 06:47:25;;;;;;;0.00;0.00;;;;;23.20;100077.00;;;;5107778;28;20093;-77
2022/01/24 06:49:55;;;;;;;0.00;0.00;;;;;23.20;100073.00;;;;5107922;28;20678;-77
2022/01/24 06:52:24;;;;;;;0.00;0.00;;;;;23.10;100081.00;;;;5108431;28;20039;-77
2022/01/24 06:54:54;;;;;;;0.00;0.00;;;;;23.10;100088.00;;;;5108104;28;20052;-76
2022/01/24 06:57:24;;;;;;;0.00;0.00;;;;;23.10;100086.00;;;;5089808;28;20048;-77
2022/01/24 06:59:53;;;;;;;0.00;0.00;;;;;23.10;100091.00;;;;5108238;28;20052;-76
2022/01/24 07:02:23;;;;;;;0.00;0.00;;;;;23.20;100100.00;;;;5107511;28;20043;-77
2022/01/24 07:04:52;;;;;;;0.00;0.00;;;;;23.20;100095.00;;;;5107793;28;20040;-77
2022/01/24 07:07:22;;;;;;;0.00;0.00;;;;;23.20;100107.00;;;;5089588;28;20415;-76
2022/01/24 07:09:52;;;;;;;0.00;0.00;;;;;23.10;100101.00;;;;5107735;28;20043;-76
2022/01/24 07:12:22;;;;;;;0.00;0.00;;;;;23.10;100110.00;;;;5107332;28;20047;-77
2022/01/24 07:14:52;;;;;;;0.00;0.00;;;;;23.00;100122.00;;;;5106553;28;20074;-76
2022/01/24 07:19:51;;;;;;;0.00;0.00;;;;;23.00;100111.00;;;;5106961;28;20024;-77
2022/01/24 07:22:21;;;;;;;0.00;0.00;;;;;22.90;100132.00;;;;5107783;28;20441;-77
2022/01/24 07:24:50;;;;;;;0.00;0.00;;;;;22.90;100115.00;;;;5107614;28;20078;-77
2022/01/24 07:27:20;;;;;;;0.00;0.00;;;;;22.90;100108.00;;;;5106715;28;20093;-76
2022/01/24 07:29:49;;;;;;;0.43;0.43;;;;;22.90;100118.00;;;;5107058;28;20058;-77
2022/01/24 07:32:19;;;;;;;0.00;0.00;;;;;22.80;100118.00;;;;5107010;28;20456;-76
2022/01/24 07:34:50;;;;;;;0.00;0.00;;;;;22.80;100115.00;;;;5107293;28;20065;-76
2022/01/24 07:37:21;;;;;;;0.00;0.00;;;;;22.80;100117.00;;;;5107376;28;20028;-77
2022/01/24 07:39:52;;;;;;;0.00;0.00;;;;;22.70;100119.00;;;;5106782;28;20046;-77
2022/01/24 07:43:09;;;;;;;;;;;;;22.70;100123.00;;;;5107708;28;20040;-76
2022/01/24 07:45:14;;;;;;;0.00;0.00;;;;;22.70;100121.00;;;;5078634;28;19947;-77
2022/01/24 07:47:43;;;;;;;0.00;0.00;;;;;22.70;100117.00;;;;5106824;28;20048;-77
2022/01/24 07:50:15;;;;;;;0.00;0.00;;;;;22.70;100123.00;;;;5089773;28;20067;-76
2022/01/24 07:52:45;;;;;;;0.00;0.00;;;;;22.70;100131.00;;;;5107101;28;20118;-77
2022/01/24 07:55:15;;;;;;;0.00;0.00;;;;;22.70;100131.00;;;;5106944;28;20048;-75
2022/01/24 07:57:45;;;;;;;0.00;0.00;;;;;22.70;100125.00;;;;5106603;28;20043;-76
2022/01/24 08:00:16;;;;;;;0.00;0.00;;;;;22.70;100129.00;;;;5106918;28;20066;-76
2022/01/24 08:02:45;;;;;;;;;;;;;22.70;100133.00;;;;5107177;28;20117;-76
2022/01/24 08:05:15;;;;;;;0.00;0.00;;;;;22.70;100129.00;;;;5105903;28;20331;-75
2022/01/24 08:07:44;;;;;;;0.00;0.00;;;;;22.60;100143.00;;;;5106758;28;20066;-75
2022/01/24 08:10:14;;;;;;;0.00;0.00;;;;;22.60;100141.00;;;;5107390;28;20048;-77
2022/01/24 08:12:46;;;;;;;0.00;0.00;;;;;22.60;100148.00;;;;5106626;28;20044;-76
2022/01/24 08:15:16;;;;;;;0.00;0.00;;;;;22.60;100156.00;;;;5088531;28;20097;-76
2022/01/24 08:17:47;;;;;;;0.00;0.00;;;;;22.60;100156.00;;;;5107409;28;20091;-76
2022/01/24 08:20:18;;;;;;;0.00;0.00;;;;;22.60;100161.00;;;;5106745;28;20056;-76
2022/01/24 08:23:09;;;;;;;0.00;0.00;;;;;22.60;100164.00;;;;5106567;28;20508;-77
2022/01/24 08:25:39;;;;;;;0.00;0.00;;;;;22.60;100164.00;;;;5106952;28;20119;-77
2022/01/24 08:28:09;;;;;;;0.00;0.00;;;;;22.60;100168.00;;;;5109756;28;20510;-77
2022/01/24 08:30:38;;;;;;;0.00;0.00;;;;;22.70;100183.00;;;;5111301;28;20047;-77
2022/01/24 08:33:09;;;;;;;0.00;0.00;;;;;22.70;100180.00;;;;5092303;28;20051;-78
2022/01/24 08:35:42;;;;;;;0.00;0.00;;;;;22.60;100188.00;;;;5110124;28;20036;-76
2022/01/24 08:38:12;;;;;;;0.00;0.00;;;;;22.60;100186.00;;;;5110049;28;20510;-76
2022/01/24 08:40:45;;;;;;;0.00;0.00;;;;;22.70;100195.00;;;;5110923;28;20050;-76
2022/01/24 08:43:22;;;;;;;0.00;0.00;;;;;22.80;100198.00;;;;5110467;28;20036;-76
2022/01/24 08:45:58;;;;;;;0.00;0.00;;;;;22.80;100195.00;;;;5110873;28;20051;-76
2022/01/24 08:48:31;;;;;;;0.00;0.00;;;;;22.80;100212.00;;;;5110434;28;20771;-76
2022/01/24 08:51:02;;;;;;;0.00;0.00;;;;;23.00;100221.00;;;;5109460;28;20159;-76
2022/01/24 08:53:33;;;;;;;0.00;0.00;;;;;23.00;100206.00;;;;5109863;28;20089;-76
2022/01/24 08:56:06;;;;;;;0.00;0.00;;;;;23.00;100206.00;;;;5110507;28;20072;-75
2022/01/24 08:58:36;;;;;;;0.00;0.00;;;;;23.00;100215.00;;;;5110243;28;20081;-76
2022/01/24 09:01:06;;;;;;;0.00;0.00;;;;;23.00;100223.00;;;;5109239;28;20039;-75
2022/01/24 09:03:39;;;;;;;0.00;0.00;;;;;23.00;100222.00;;;;5109417;28;20058;-75
2022/01/24 09:06:10;;;;;;;0.00;0.00;;;;;22.90;100241.00;;;;5110344;28;20138;-75
2022/01/24 09:08:39;;;;;;;0.00;0.00;;;;;22.90;100245.00;;;;5110147;28;20525;-75
2022/01/24 09:11:09;;;;;;;0.00;0.00;;;;;23.00;100249.00;;;;5109826;28;20078;-76
2022/01/24 09:13:38;;;;;;;0.00;0.00;;;;;23.00;100261.00;;;;5109516;28;20556;-76
2022/01/24 09:16:08;;;;;;;0.00;0.00;;;;;23.10;100258.00;;;;5109685;28;20040;-76
2022/01/24 09:18:37;;;;;;;0.00;0.00;;;;;23.20;100265.00;;;;5109556;28;20058;-76
2022/01/24 09:21:07;;;;;;;0.00;0.00;;;;;23.30;100262.00;;;;5109918;28;20039;-75
2022/01/24 09:23:36;;;;;;;0.00;0.00;;;;;23.30;100269.00;;;;5109682;28;20422;-75
2022/01/24 09:26:05;;;;;;;0.00;0.00;;;;;23.30;100284.00;;;;5109347;28;20065;-76
2022/01/24 09:28:35;;;;;;;0.00;0.00;;;;;23.30;100269.00;;;;5090603;28;20062;-75
2022/01/24 09:31:05;;;;;;;0.00;0.00;;;;;23.30;100264.00;;;;5109558;28;20074;-76
2022/01/24 09:33:34;;;;;;;0.00;0.00;;;;;23.30;100268.00;;;;5091092;28;20518;-75
2022/01/24 09:36:05;;;;;;;0.00;0.00;;;;;23.40;100269.00;;;;5109633;28;20043;-77
2022/01/24 09:38:36;;;;;;;0.00;0.00;;;;;23.50;100286.00;;;;5109323;28;20403;-77
2022/01/24 09:41:14;;;;;;;0.00;0.00;;;;;23.70;100283.00;;;;5109228;28;20043;-76
2022/01/24 09:43:44;;;;;;;0.00;0.00;;;;;23.80;100288.00;;;;5109024;28;20055;-75
2022/01/24 09:46:14;;;;;;;0.00;0.00;;;;;23.90;100291.00;;;;5091194;28;20468;-76
2022/01/24 09:48:44;;;;;;;0.00;0.00;;;;;24.10;100285.00;;;;5109179;28;20409;-75
2022/01/24 09:51:14;;;;;;;0.00;0.00;;;;;24.30;100299.00;;;;5108439;28;20039;-75
2022/01/24 09:53:43;;;;;;;0.00;0.00;;;;;24.90;100241.00;;;;5108858;28;20440;-75
2022/01/24 09:56:13;;;;;;;0.00;0.00;;;;;25.70;100263.00;;;;5108801;28;20069;-76
2022/01/24 09:58:42;;;;;;;0.00;0.00;;;;;26.30;100212.00;;;;5108444;28;20050;-75
2022/01/24 10:01:14;;;;;;;0.00;0.00;;;;;28.90;100148.00;;;;5108971;28;20481;-75
2022/01/24 10:04:06;;;;;;;0.00;0.00;;;;;27.80;100274.00;;;;5108631;28;20062;-76
2022/01/24 10:07:07;;;;;;;0.00;0.00;;;;;27.30;100266.00;;;;5108054;28;20406;-76
2022/01/24 10:09:43;;;;;;;0.00;0.00;;;;;27.00;100281.00;;;;5089071;28;20184;-76
2022/01/24 10:16:24;;;;;;;0.10;0.10;;;;;26.60;100294.00;;;;5085938;28;20587;-76
2022/01/24 10:18:11;;;;;;;0.00;0.00;;;;;26.70;100296.00;;;;5088228;28;20487;-76
2022/01/24 10:20:42;;;;;;;0.10;0.00;;;;;26.70;100293.00;;;;5087876;28;20040;-77
2022/01/24 10:23:24;;;;;;;;;;;;;26.60;100309.00;;;;5088276;28;20036;-76
2022/01/24 10:26:05;;;;;;;0.00;0.00;;;;;26.70;100304.00;;;;5088601;28;20501;-76
2022/01/24 10:28:38;;;;;;;0.17;0.17;;;;;26.70;100312.00;;;;5087907;28;20051;-76
2022/01/24 10:31:10;;;;;;;0.00;0.00;;;;;26.60;100311.00;;;;5087897;28;20515;-76
2022/01/24 10:33:58;;;;;;;0.00;0.00;;;;;26.90;100305.00;;;;5086975;28;20753;-76
2022/01/24 10:36:44;;;;;;;0.00;0.00;;;;;28.00;100258.00;;;;5086522;28;20044;-75
2022/01/24 10:39:18;;;;;;;0.00;0.00;;;;;30.80;100151.00;;;;5086555;28;20044;-75
2022/01/24 10:42:22;;;;;;;0.00;0.00;;;;;34.20;100134.00;;;;5088347;28;20055;-76
2022/01/24 10:44:53;;;;;;;0.00;0.00;;;;;31.80;100196.00;;;;5087241;28;20063;-75
2022/01/24 10:47:30;;;;;;;0.00;0.00;;;;;33.80;100160.00;;;;5087582;28;20040;-76
2022/01/24 10:50:04;;;;;;;0.00;0.00;;;;;31.80;100294.00;;;;5087136;28;20040;-76
2022/01/24 10:52:34;;;;;;;0.00;0.00;;;;;30.50;100236.00;;;;5069744;28;20056;-78
2022/01/24 10:55:27;;;;;;;0.00;0.00;;;;;34.60;100154.00;;;;5087776;28;20047;-75
2022/01/24 10:58:09;;;;;;;0.00;0.00;;;;;34.30;100218.00;;;;5087272;28;20077;-76
2022/01/24 11:00:40;;;;;;;0.00;0.00;;;;;33.30;100191.00;;;;5087212;28;20032;-76
2022/01/24 11:03:18;;;;;;;0.00;0.00;;;;;33.00;100270.00;;;;5086903;28;20138;-75
2022/01/24 11:05:48;;;;;;;0.70;0.65;;;;;30.50;100320.00;;;;5087439;28;20054;-76
2022/01/24 11:08:18;;;;;;;0.00;0.00;;;;;29.60;100314.00;;;;5068159;28;20052;-76
2022/01/24 11:10:50;;;;;;;0.00;0.00;;;;;29.60;100316.00;;;;5086310;28;20044;-77
2022/01/24 11:13:30;;;;;;;0.00;0.00;;;;;29.50;100316.00;;;;5086720;28;20044;-76
2022/01/24 11:16:02;;;;;;;0.00;0.00;;;;;30.70;100251.00;;;;5087290;28;20094;-77
2022/01/24 11:18:33;;;;;;;0.00;0.00;;;;;35.90;100175.00;;;;5086118;28;20040;-77
2022/01/24 11:21:12;;;;;;;0.00;0.00;;;;;38.40;100167.00;;;;5068142;28;20547;-77
2022/01/24 11:23:43;;;;;;;0.00;0.00;;;;;39.40;100170.00;;;;5086215;28;20495;-77
2022/01/24 11:26:12;;;;;;;;;;;;;40.60;100166.00;;;;5067839;28;20052;-77
2022/01/24 11:28:43;;;;;;;0.00;0.00;;;;;40.60;100168.00;;;;5085804;28;19920;-77
2022/01/24 11:31:25;;;;;;;0.00;0.00;;;;;40.90;100153.00;;;;5085213;28;20044;-77
2022/01/24 11:34:13;;;;;;;0.00;0.00;;;;;40.50;100158.00;;;;5102546;28;20616;-77
2022/01/24 11:36:45;;;;;;;0.00;0.00;;;;;40.50;100148.00;;;;5087021;28;20131;-77
2022/01/24 11:39:22;;;;;;;0.00;0.00;;;;;40.20;100148.00;;;;5086659;28;20040;-76
2022/01/24 11:41:52;;;;;;;0.00;0.00;;;;;39.50;100151.00;;;;5087147;28;20047;-77
2022/01/24 11:44:23;;;;;;;0.22;0.20;;;;;38.20;100127.00;;;;5086656;28;20055;-76
2022/01/24 11:46:56;;;;;;;0.00;0.00;;;;;38.10;100146.00;;;;5087314;28;20040;-77
2022/01/24 11:49:27;;;;;;;0.20;0.20;;;;;37.50;100152.00;;;;5087509;28;20392;-77
2022/01/24 11:52:11;;;;;;;0.00;0.00;;;;;37.50;100157.00;;;;5085755;28;20050;-76
2022/01/24 11:54:54;;;;;;;0.00;0.00;;;;;37.20;100151.00;;;;5086342;28;20071;-77
2022/01/24 11:57:33;;;;;;;0.00;0.00;;;;;37.40;100146.00;;;;5086138;28;20051;-77
2022/01/24 12:00:04;;;;;;;0.00;0.00;;;;;36.80;100152.00;;;;5087190;28;20127;-78
2022/01/24 12:02:47;;;;;;;0.00;0.00;;;;;35.50;100160.00;;;;5090857;28;20525;-77
2022/01/24 12:05:22;;;;;;;0.00;0.00;;;;;35.20;100183.00;;;;5090621;28;20052;-78
2022/01/24 12:07:59;;;;;;;0.10;0.10;;;;;34.70;100257.00;;;;5090969;28;20043;-78
2022/01/24 12:10:51;;;;;;;0.00;0.00;;;;;33.70;100257.00;;;;5090122;28;20487;-77
2022/01/24 12:13:29;;;;;;;0.00;0.00;;;;;33.50;100273.00;;;;5091430;28;20044;-77
2022/01/24 12:16:09;;;;;;;0.00;0.00;;;;;34.40;100275.00;;;;5090274;28;20044;-77
2022/01/24 12:18:39;;;;;;;0.00;0.00;;;;;34.20;100275.00;;;;5090977;28;20805;-77
2022/01/24 12:21:24;;;;;;;0.00;0.00;;;;;34.40;100270.00;;;;5090318;28;20035;-77
2022/01/24 12:24:03;;;;;;;0.08;0.08;;;;;34.60;100261.00;;;;5090711;28;20043;-77
2022/01/24 12:26:50;;;;;;;0.00;0.00;;;;;34.80;100270.00;;;;5090324;28;20085;-77
2022/01/24 12:29:27;;;;;;;0.00;0.00;;;;;34.30;100313.00;;;;5090090;28;20055;-77
2022/01/24 12:32:03;;;;;;;0.00;0.00;;;;;34.00;100253.00;;;;5089647;28;20063;-78
2022/01/24 12:34:41;;;;;;;0.00;0.00;;;;;34.90;100253.00;;;;5090420;28;20391;-78
2022/01/24 12:37:30;;;;;;;0.35;0.10;;;;;34.80;100302.00;;;;5090410;28;20036;-80
2022/01/24 12:40:06;;;;;;;0.00;0.00;;;;;33.30;100246.00;;;;5089748;28;20092;-77
2022/01/24 12:42:52;;;;;;;0.00;0.00;;;;;34.30;100244.00;;;;5089965;28;20102;-78
2022/01/24 12:48:32;;;;;;;0.00;0.00;;;;;33.70;100244.00;;;;5089446;28;20036;-77
2022/01/24 12:51:04;;;;;;;0.00;0.00;;;;;33.80;100231.00;;;;5090063;28;20418;-77
2022/01/24 12:53:39;;;;;;;0.13;0.10;;;;;33.90;100238.00;;;;5089987;28;20044;-78
2022/01/24 12:56:11;;;;;;;0.10;0.10;;;;;33.90;100248.00;;;;5089712;28;20047;-78
2022/01/24 12:58:44;;;;;;;0.00;0.00;;;;;34.30;100236.00;;;;5089605;28;20543;-77
2022/01/24 13:01:28;;;;;;;0.00;0.00;;;;;34.20;100232.00;;;;5089594;28;20493;-77
2022/01/24 13:04:06;;;;;;;27.65;2.67;;;;;34.40;100226.00;;;;5090081;28;20036;-78
2022/01/24 13:06:38;;;;;;;0.00;0.00;;;;;34.70;100230.00;;;;5090015;28;20436;-77
2022/01/24 13:09:13;;;;;;;0.43;0.43;;;;;34.50;100227.00;;;;5088860;28;20147;-77
2022/01/24 13:11:52;;;;;;;0.40;0.38;;;;;34.60;100216.00;;;;5089052;28;20051;-78
2022/01/24 13:23:00;;;;;;;0.00;0.00;;;;;34.70;100213.00;;;;5089671;28;20054;-78
2022/01/24 13:25:37;;;;;;;0.00;0.00;;;;;34.90;100210.00;;;;5089294;28;20059;-77
2022/01/24 13:28:13;;;;;;;0.10;0.10;;;;;35.00;100218.00;;;;5089080;28;20048;-78
2022/01/24 13:30:57;;;;;;;0.20;0.10;;;;;35.00;100226.00;;;;5090044;28;20040;-78
2022/01/24 13:33:28;;;;;;;0.28;0.20;;;;;35.10;100223.00;;;;5089427;28;20048;-78
2022/01/24 13:36:10;;;;;;;0.00;0.00;;;;;35.30;100218.00;;;;5089166;28;20088;-79
2022/01/24 13:38:43;;;;;;;0.25;0.20;;;;;35.60;100215.00;;;;5089048;28;20036;-78
2022/01/24 13:41:14;;;;;;;0.00;0.00;;;;;35.30;100204.00;;;;5089278;28;20032;-78
2022/01/24 13:43:46;;;;;;;0.00;0.00;;;;;35.10;100215.00;;;;5088780;28;20059;-78
2022/01/24 13:46:20;;;;;;;0.00;0.00;;;;;35.10;100206.00;;;;5089137;28;20063;-77
2022/01/24 13:49:10;;;;;;;0.10;0.10;;;;;35.40;100211.00;;;;5088645;28;20410;-79
2022/01/24 13:51:47;;;;;;;0.00;0.00;;;;;35.20;100195.00;;;;5089003;28;20068;-77
2022/01/24 13:54:29;;;;;;;0.00;0.00;;;;;35.30;100198.00;;;;5088967;28;20040;-76
2022/01/24 13:57:04;;;;;;;0.00;0.00;;;;;35.40;100195.00;;;;5088875;28;20040;-77
2022/01/24 13:59:35;;;;;;;2.15;1.98;;;;;35.30;100180.00;;;;5088708;28;20119;-77
2022/01/24 14:02:19;;;;;;;;;;;;;35.10;100180.00;;;;5089226;28;20494;-77
2022/01/24 14:04:53;;;;;;;0.10;0.10;;;;;34.70;100178.00;;;;5088105;28;20006;-78
2022/01/24 14:07:24;;;;;;;0.32;0.32;;;;;35.10;100189.00;;;;5087629;28;20043;-78
2022/01/24 14:09:53;;;;;;;0.10;0.10;;;;;35.90;100187.00;;;;5070510;28;20447;-78
2022/01/24 14:12:37;;;;;;;0.38;0.30;;;;;35.50;100189.00;;;;5088029;28;20071;-78
2022/01/24 14:15:14;;;;;;;0.03;0.03;;;;;35.90;100166.00;;;;5088359;28;20055;-77
2022/01/24 14:18:20;;;;;;;0.10;0.10;;;;;36.20;100180.00;;;;5088118;28;20503;-77
2022/01/24 14:20:53;;;;;;;0.00;0.00;;;;;36.20;100192.00;;;;5087580;28;20526;-77
2022/01/24 14:23:35;;;;;;;0.00;0.00;;;;;36.20;100190.00;;;;5088242;28;20064;-77
2022/01/24 14:26:20;;;;;;;0.22;0.22;;;;;36.20;100178.00;;;;5087514;28;20148;-78
2022/01/24 14:29:05;;;;;;;0.20;0.20;;;;;36.20;100181.00;;;;5087957;28;20040;-78
2022/01/24 14:31:36;;;;;;;0.43;0.40;;;;;36.40;100174.00;;;;5087667;28;20119;-78
2022/01/24 14:34:06;;;;;;;;;;;;;36.50;100175.00;;;;5088650;28;20075;-79